TimeEST,TemperatureF,Dew PointF,Humidity,Sea Level PressureIn,VisibilityMPH,Wind Direction,Wind SpeedMPH,Gust SpeedMPH,PrecipitationIn,Events,Conditions,WindDirDegrees,DateUTC
12:15 AM,29.7,21.2,71,29.96,10.0,East,8.1,-,N/A,,Mostly Cloudy,100,2013-12-03 05:15:00
12:35 AM,29.7,21.2,71,29.96,10.0,East,11.5,-,N/A,,Scattered Clouds,100,2013-12-03 05:35:00
12:55 AM,28.6,20.3,71,29.95,10.0,East,8.1,-,N/A,,Clear,90,2013-12-03 05:55:00
1:14 AM,28.9,19.9,69,29.95,10.0,ESE,10.4,-,N/A,,Clear,110,2013-12-03 06:14:00
1:35 AM,29.1,20.7,71,29.94,10.0,ESE,9.2,-,N/A,,Clear,110,2013-12-03 06:35:00
1:55 AM,29.1,21.2,72,29.94,10.0,ESE,11.5,17.3,N/A,,Clear,110,2013-12-03 06:55:00
2:14 AM,28.9,21.9,75,29.94,10.0,East,10.4,-,N/A,,Clear,100,2013-12-03 07:14:00
2:35 AM,28.8,22.5,77,29.94,10.0,East,11.5,-,N/A,,Clear,100,2013-12-03 07:35:00
2:55 AM,28.4,22.1,77,29.95,10.0,East,11.5,-,N/A,,Clear,90,2013-12-03 07:55:00
3:14 AM,28.2,22.5,79,29.95,10.0,East,10.4,-,N/A,,Clear,100,2013-12-03 08:14:00
3:35 AM,28.0,22.6,80,29.94,10.0,East,11.5,-,N/A,,Clear,100,2013-12-03 08:35:00
3:55 AM,27.5,22.5,81,29.94,10.0,East,13.8,-,N/A,,Clear,90,2013-12-03 08:55:00
4:14 AM,27.5,22.5,81,29.94,10.0,East,11.5,-,N/A,,Clear,90,2013-12-03 09:14:00
4:35 AM,27.5,22.5,81,29.94,10.0,East,11.5,-,N/A,,Clear,100,2013-12-03 09:35:00
4:55 AM,27.5,22.3,81,29.94,10.0,East,13.8,-,N/A,,Clear,100,2013-12-03 09:55:00
5:14 AM,27.3,21.9,80,29.94,10.0,East,10.4,-,N/A,,Clear,100,2013-12-03 10:14:00
5:35 AM,27.3,21.9,80,29.94,10.0,ESE,11.5,17.3,N/A,,Clear,110,2013-12-03 10:35:00
5:55 AM,27.5,21.9,80,29.94,10.0,East,10.4,18.4,N/A,,Clear,100,2013-12-03 10:55:00
6:15 AM,27.3,21.7,80,29.95,10.0,ESE,13.8,-,N/A,,Scattered Clouds,110,2013-12-03 11:15:00
6:35 AM,27.5,21.9,80,29.95,10.0,East,11.5,-,N/A,,Mostly Cloudy,100,2013-12-03 11:35:00
6:54 AM,27.5,21.9,80,29.95,10.0,East,10.4,-,N/A,,Overcast,100,2013-12-03 11:54:00
7:15 AM,27.3,21.2,78,29.95,10.0,East,11.5,-,N/A,,Overcast,100,2013-12-03 12:15:00
7:35 AM,27.1,21.6,80,29.95,10.0,East,11.5,17.3,N/A,,Overcast,90,2013-12-03 12:35:00
7:54 AM,27.3,21.6,79,29.95,10.0,East,13.8,-,N/A,,Overcast,90,2013-12-03 12:54:00
8:15 AM,27.3,21.6,79,29.95,10.0,East,10.4,-,N/A,,Overcast,90,2013-12-03 13:15:00
8:34 AM,27.5,21.7,79,29.96,10.0,ESE,8.1,-,N/A,,Overcast,110,2013-12-03 13:34:00
8:55 AM,27.5,21.7,79,29.97,10.0,ESE,8.1,-,N/A,Snow,Light Snow,110,2013-12-03 13:55:00
9:14 AM,27.5,22.1,80,29.97,10.0,East,10.4,-,N/A,,Overcast,100,2013-12-03 14:14:00
9:35 AM,27.5,22.1,80,29.98,10.0,East,9.2,-,N/A,,Overcast,100,2013-12-03 14:35:00
9:54 AM,27.5,22.1,80,29.97,10.0,East,9.2,-,N/A,,Overcast,90,2013-12-03 14:54:00
10:15 AM,28.0,22.5,80,29.98,10.0,East,10.4,-,N/A,Snow,Light Snow,90,2013-12-03 15:15:00
10:35 AM,27.5,22.1,80,29.98,2.0,East,11.5,-,N/A,Snow,Light Snow,90,2013-12-03 15:35:00
10:54 AM,27.5,22.6,82,29.99,7.0,East,8.1,-,N/A,Snow,Light Snow,90,2013-12-03 15:54:00
11:15 AM,26.8,23.9,89,29.99,0.2,East,9.2,-,N/A,Snow,Snow,90,2013-12-03 16:15:00
11:35 AM,26.6,24.6,92,29.98,0.8,East,11.5,-,N/A,Snow,Light Snow,80,2013-12-03 16:35:00
11:54 AM,26.6,24.4,92,29.97,1.2,East,9.2,-,N/A,Snow,Light Snow,90,2013-12-03 16:54:00
12:15 PM,27.1,24.6,90,29.97,1.5,East,8.1,-,N/A,Snow,Light Snow,100,2013-12-03 17:15:00
12:35 PM,27.3,23.9,87,29.97,5.0,East,10.4,-,N/A,Snow,Light Snow,90,2013-12-03 17:35:00
12:54 PM,27.5,23.9,86,29.97,4.0,East,8.1,-,N/A,Snow,Light Snow,90,2013-12-03 17:54:00
1:15 PM,27.5,23.7,86,29.96,7.0,East,9.2,-,N/A,Snow,Light Snow,100,2013-12-03 18:15:00
1:35 PM,27.9,23.7,84,29.95,5.0,East,11.5,-,N/A,Snow,Light Snow,80,2013-12-03 18:35:00
1:54 PM,28.4,24.1,84,29.94,10.0,East,9.2,-,N/A,,Overcast,80,2013-12-03 18:54:00
2:15 PM,28.4,23.7,83,29.94,10.0,East,9.2,-,N/A,,Overcast,80,2013-12-03 19:15:00
2:35 PM,28.4,23.7,83,29.93,10.0,East,10.4,-,N/A,,Overcast,80,2013-12-03 19:35:00
2:55 PM,28.4,23.4,81,29.93,10.0,East,12.7,-,N/A,,Overcast,90,2013-12-03 19:55:00
3:15 PM,28.9,23.9,81,29.92,10.0,East,10.4,-,N/A,,Overcast,90,2013-12-03 20:15:00
3:34 PM,28.8,23.9,82,29.92,10.0,East,12.7,-,N/A,,Overcast,80,2013-12-03 20:34:00
3:55 PM,28.8,23.9,82,29.92,10.0,East,12.7,-,N/A,,Overcast,90,2013-12-03 20:55:00
4:15 PM,28.9,24.1,82,29.93,10.0,East,11.5,-,N/A,,Overcast,80,2013-12-03 21:15:00
4:34 PM,28.6,24.1,83,29.93,10.0,East,11.5,-,N/A,,Overcast,80,2013-12-03 21:34:00
4:55 PM,28.9,24.6,84,29.93,10.0,East,12.7,-,N/A,,Overcast,90,2013-12-03 21:55:00
5:15 PM,29.1,24.8,84,29.92,10.0,East,12.7,18.4,N/A,,Overcast,90,2013-12-03 22:15:00
5:34 PM,29.3,24.4,82,29.92,10.0,East,10.4,-,N/A,,Overcast,80,2013-12-03 22:34:00
5:55 PM,29.3,24.8,83,29.92,10.0,East,12.7,-,N/A,,Overcast,90,2013-12-03 22:55:00
6:15 PM,29.7,25.0,83,29.92,7.0,East,17.3,-,N/A,Snow,Light Snow,90,2013-12-03 23:15:00
6:34 PM,29.7,24.8,82,29.93,7.0,ESE,13.8,19.6,N/A,Snow,Light Snow,110,2013-12-03 23:34:00
6:55 PM,29.3,25.3,85,29.93,2.5,East,13.8,-,N/A,Snow,Light Snow,90,2013-12-03 23:55:00
7:14 PM,29.1,26.1,88,29.93,1.8,East,13.8,-,N/A,Snow,Light Snow,90,2013-12-04 00:14:00
7:35 PM,29.3,25.9,87,29.93,10.0,East,13.8,-,N/A,,Overcast,80,2013-12-04 00:35:00
7:55 PM,29.7,25.3,84,29.93,10.0,East,12.7,-,N/A,,Overcast,90,2013-12-04 00:55:00
8:14 PM,29.8,25.5,84,29.92,3.0,East,13.8,-,N/A,Snow,Light Snow,100,2013-12-04 01:14:00
8:35 PM,30.0,25.9,85,29.92,4.0,East,13.8,20.7,N/A,Snow,Light Snow,100,2013-12-04 01:35:00
8:55 PM,30.2,26.2,85,29.92,4.0,East,12.7,19.6,N/A,Snow,Light Snow,100,2013-12-04 01:55:00
9:14 PM,30.2,26.6,86,29.92,4.0,East,16.1,19.6,N/A,Snow,Light Snow,100,2013-12-04 02:14:00
9:35 PM,30.6,27.1,87,29.92,5.0,East,15.0,19.6,N/A,Snow,Light Snow,100,2013-12-04 02:35:00
9:55 PM,31.1,27.9,88,29.92,5.0,East,13.8,19.6,N/A,Snow,Light Snow,100,2013-12-04 02:55:00
10:15 PM,31.1,28.4,90,29.92,3.0,East,16.1,-,N/A,Snow,Light Snow,100,2013-12-04 03:15:00
10:35 PM,31.1,28.9,92,29.92,3.0,East,15.0,-,N/A,Snow,Light Snow,90,2013-12-04 03:35:00
10:54 PM,31.1,29.1,92,29.91,2.5,East,13.8,21.9,N/A,Snow,Light Snow,100,2013-12-04 03:54:00
11:15 PM,31.1,29.3,93,29.91,1.8,East,12.7,-,N/A,Snow,Light Snow,100,2013-12-04 04:15:00
11:34 PM,31.5,30.0,94,29.91,1.8,East,13.8,19.6,N/A,Snow,Light Snow,100,2013-12-04 04:34:00
11:55 PM,31.1,30.2,96,29.91,1.5,East,17.3,21.9,N/A,Snow,Light Snow,100,2013-12-04 04:55:00